Time;durP1;ratioP1;P1;durP2;ratioP2;P2;SDS_P1;SDS_P2;PMS_P1;PMS_P2;Temp;Humidity;BMP_temperature;BMP_pressure;BME280_temperature;BME280_humidity;BME280_pressure;Samples;Min_cycle;Max_cycle;Signal;HPM_P1;HPM_P2
2022/03/01 00:01:36;;;;;;;14.80;12.20;;;-0.50;99.90;;;0.26;64.94;99180.63;5199523;28;20198;-61
2022/03/01 00:04:09;;;;;;;16.30;13.13;;;-0.40;99.90;;;0.25;64.88;99183.81;5203422;28;20574;-61
2022/03/01 00:06:42;;;;;;;18.10;13.70;;;-0.40;99.90;;;0.26;64.17;99180.63;5198280;28;20665;-61
2022/03/01 00:09:15;;;;;;;16.20;13.47;;;-0.40;99.90;;;0.34;63.82;99184.91;5202719;28;20229;-61
2022/03/01 00:11:49;;;;;;;17.17;13.87;;;-0.40;99.90;;;0.34;63.86;99184.91;5203013;28;20206;-61
2022/03/01 00:14:22;;;;;;;16.40;12.93;;;-0.30;99.90;;;0.34;65.65;99179.88;5204730;28;20217;-61
2022/03/01 00:16:56;;;;;;;16.10;12.47;;;-0.30;99.90;;;0.33;66.79;99187.25;5200857;28;20220;-60
2022/03/01 00:19:30;;;;;;;15.33;12.03;;;-0.40;99.90;;;0.28;67.54;99188.31;5199984;28;20213;-61
2022/03/01 00:22:03;;;;;;;13.70;11.73;;;-0.50;99.90;;;0.28;67.96;99191.72;5200742;28;20213;-60
2022/03/01 00:24:39;;;;;;;14.93;12.43;;;-0.60;99.90;;;0.09;67.79;99187.78;5201647;28;20247;-61
2022/03/01 00:27:12;;;;;;;14.13;11.80;;;-0.70;99.90;;;-0.02;68.56;99182.38;5200560;28;20220;-60
2022/03/01 00:29:45;;;;;;;16.73;12.83;;;-0.80;99.90;;;-0.02;69.02;99182.38;5201439;28;20191;-60
2022/03/01 00:32:19;;;;;;;15.30;13.03;;;-0.70;99.90;;;0.03;68.43;99180.41;5201435;28;20198;-61
2022/03/01 00:34:52;;;;;;;16.03;13.63;;;-0.70;99.90;;;-0.10;66.97;99177.13;5202371;28;20197;-61
2022/03/01 00:37:26;;;;;;;16.90;13.33;;;-0.80;99.90;;;-0.04;66.58;99177.88;5202177;28;20689;-61
2022/03/01 00:39:59;;;;;;;16.30;13.37;;;-0.70;99.90;;;0.02;66.36;99177.69;5194054;28;20199;-60
2022/03/01 00:42:32;;;;;;;17.77;13.37;;;-0.80;99.90;;;-0.10;65.60;99167.09;5203571;28;20212;-61
2022/03/01 00:45:07;;;;;;;17.57;13.93;;;-0.80;99.90;;;-0.08;66.81;99173.22;5193234;28;20201;-61
2022/03/01 00:47:41;;;;;;;17.53;12.57;;;-0.70;99.90;;;-0.07;66.17;99172.47;5202763;28;20221;-60
2022/03/01 00:50:14;;;;;;;17.40;13.73;;;-0.70;99.90;;;-0.06;65.90;99171.75;5205636;28;20205;-60
2022/03/01 00:52:47;;;;;;;16.70;13.23;;;-0.70;99.90;;;-0.06;67.25;99174.25;5203996;28;20279;-59
2022/03/01 00:55:20;;;;;;;16.37;12.70;;;-0.70;99.90;;;-0.05;67.71;99171.94;5206495;28;20208;-61
2022/03/01 00:57:54;;;;;;;13.27;11.87;;;-0.90;99.90;;;-0.09;68.49;99172.28;5206728;28;20232;-59
2022/03/01 01:00:27;;;;;;;14.17;12.53;;;-1.00;99.90;;;-0.25;69.15;99173.72;5211387;28;20201;-61
2022/03/01 01:03:03;;;;;;;14.80;12.47;;;-1.10;99.90;;;-0.35;70.42;99173.31;5205210;28;20194;-61
2022/03/01 01:05:36;;;;;;;14.73;12.17;;;-1.20;99.90;;;-0.42;70.08;99170.78;5203426;28;20233;-60
2022/03/01 01:08:09;;;;;;;18.30;13.03;;;-1.30;99.90;;;-0.49;70.48;99172.56;5205501;28;20248;-59
2022/03/01 01:10:42;;;;;;;14.93;12.47;;;-1.30;99.90;;;-0.61;70.10;99171.06;5206060;28;20194;-61
2022/03/01 01:13:15;;;;;;;15.10;12.40;;;-1.40;99.90;;;-0.66;71.72;99174.63;5206374;28;20222;-61
2022/03/01 01:15:49;;;;;;;18.37;13.27;;;-1.40;99.90;;;-0.77;71.71;99170.84;5207673;28;20201;-61
2022/03/01 01:18:23;;;;;;;15.93;13.20;;;-1.50;99.90;;;-0.76;71.11;99176.75;5201444;28;20241;-61
2022/03/01 01:20:56;;;;;;;16.27;13.20;;;-1.50;99.90;;;-0.82;71.04;99181.03;5205486;28;20200;-61
2022/03/01 01:23:29;;;;;;;17.17;13.33;;;-1.60;99.90;;;-0.89;70.62;99165.91;5207055;28;20582;-60
2022/03/01 01:26:02;;;;;;;16.13;13.00;;;-1.60;99.90;;;-0.84;69.71;99172.41;5205679;28;20209;-61
2022/03/01 01:28:36;;;;;;;16.47;12.67;;;-1.60;99.90;;;-0.87;70.20;99167.00;5203989;28;20214;-61
2022/03/01 01:31:09;;;;;;;18.37;13.57;;;-1.60;99.90;;;-0.81;69.16;99168.66;5201187;28;20206;-60
2022/03/01 01:33:43;;;;;;;16.77;13.17;;;-1.50;99.90;;;-0.76;69.13;99164.19;5202228;28;20214;-59
2022/03/01 01:36:16;;;;;;;17.47;13.30;;;-1.50;99.90;;;-0.77;69.30;99162.41;5199919;28;20201;-61
2022/03/01 01:38:49;;;;;;;17.87;13.73;;;-1.40;99.90;;;-0.75;67.91;99160.97;5204023;28;20229;-59
2022/03/01 01:41:23;;;;;;;15.07;12.37;;;-1.50;99.90;;;-0.71;68.46;99161.53;5201332;28;20707;-59
2022/03/01 01:43:56;;;;;;;16.93;12.80;;;-1.40;99.90;;;-0.81;68.70;99157.72;5203001;28;20194;-61
2022/03/01 01:46:29;;;;;;;15.00;12.67;;;-1.50;99.90;;;-0.82;69.30;99159.34;5202131;28;20206;-59
2022/03/01 01:49:04;;;;;;;17.63;12.70;;;-1.40;99.90;;;-0.76;68.78;99164.19;5202300;28;20222;-60
2022/03/01 01:51:37;;;;;;;15.10;12.83;;;-1.50;99.90;;;-0.84;69.47;99150.72;5201988;28;20198;-61
2022/03/01 01:54:10;;;;;;;15.67;13.30;;;-1.50;99.90;;;-0.86;70.94;99158.75;5201548;28;20225;-61
2022/03/01 01:56:44;;;;;;;17.73;13.40;;;-1.50;99.90;;;-0.89;71.00;99150.88;5202348;28;20244;-60
2022/03/01 01:59:17;;;;;;;17.27;13.23;;;-1.60;99.90;;;-0.86;70.47;99153.75;5207514;28;20252;-61
2022/03/01 02:01:50;;;;;;;17.77;13.20;;;-1.50;99.90;;;-0.84;71.65;99148.19;5201294;28;20201;-61
2022/03/01 02:04:25;;;;;;;18.67;14.07;;;-1.60;99.90;;;-0.92;70.48;99143.84;5200574;28;20214;-59
2022/03/01 02:06:58;;;;;;;18.27;13.50;;;-1.60;99.90;;;-0.89;71.43;99135.81;5202619;28;20772;-61
2022/03/01 02:09:31;;;;;;;15.87;12.73;;;-1.60;99.90;;;-0.92;71.01;99142.28;5207290;28;20198;-56
2022/03/01 02:12:06;;;;;;;17.50;13.33;;;-1.60;99.90;;;-0.98;72.16;99131.47;5208466;28;20197;-57
2022/03/01 02:14:40;;;;;;;15.60;12.60;;;-1.60;99.90;;;-0.96;70.76;99132.56;5207842;28;20217;-60
2022/03/01 02:17:13;;;;;;;17.67;13.67;;;-1.70;99.90;;;-0.97;70.58;99134.91;5202349;28;20232;-60
2022/03/01 02:19:50;;;;;;;17.80;12.93;;;-1.70;99.90;;;-1.03;71.64;99130.03;5204462;28;20632;-58
2022/03/01 02:22:33;;;;;;;17.57;13.07;;;-1.70;99.90;;;-1.03;71.73;99121.59;5201083;28;20218;-59
2022/03/01 02:25:07;;;;;;;17.83;14.07;;;-1.70;99.90;;;-1.04;70.01;99122.31;5200537;28;20685;-56
2022/03/01 02:27:41;;;;;;;17.70;14.03;;;-1.80;99.90;;;-1.22;70.80;99115.94;5203273;28;20569;-59
2022/03/01 02:30:14;;;;;;;17.00;13.13;;;-1.90;99.90;;;-1.15;70.92;99118.47;5199973;28;20201;-61
2022/03/01 02:32:47;;;;;;;15.30;13.27;;;-1.90;99.90;;;-1.17;69.75;99110.78;5203501;28;20198;-58
2022/03/01 02:35:21;;;;;;;17.43;13.63;;;-1.90;99.90;;;-1.15;69.17;99113.47;5219925;28;20230;-60
2022/03/01 02:37:55;;;;;;;16.70;12.90;;;-1.80;99.90;;;-1.17;71.45;99104.88;5208464;28;20218;-59
2022/03/01 02:40:28;;;;;;;16.50;12.83;;;-1.90;99.90;;;-1.21;72.77;99106.09;5208130;28;20204;-60
2022/03/01 02:43:01;;;;;;;17.90;13.30;;;-1.90;99.90;;;-1.16;71.35;99104.16;5215967;28;20189;-57
2022/03/01 02:45:34;;;;;;;17.53;12.27;;;-1.90;99.90;;;-1.20;73.18;99107.00;5213066;28;20546;-57
2022/03/01 02:48:08;;;;;;;16.50;12.90;;;-2.00;99.90;;;-1.25;72.09;99110.56;5202869;28;20218;-59
2022/03/01 02:50:43;;;;;;;15.43;12.20;;;-2.00;99.90;;;-1.33;73.76;99111.22;5201699;28;20205;-58
2022/03/01 02:53:17;;;;;;;16.47;12.70;;;-2.10;99.90;;;-1.41;74.48;99110.28;5204490;28;20565;-60
2022/03/01 02:55:50;;;;;;;19.03;13.27;;;-2.10;99.90;;;-1.41;75.38;99121.19;5205144;28;20592;-61
2022/03/01 02:58:23;;;;;;;16.00;11.27;;;-2.20;99.90;;;-1.51;74.88;99130.81;5207593;28;20226;-60
2022/03/01 03:00:57;;;;;;;16.17;13.20;;;-2.20;99.90;;;-1.55;73.76;99128.63;5206705;28;20657;-59
2022/03/01 03:03:30;;;;;;;19.40;13.53;;;-2.30;99.90;;;-1.51;73.58;99122.41;5205989;28;20598;-57
2022/03/01 03:06:04;;;;;;;18.30;13.17;;;-2.20;99.90;;;-1.52;74.09;99124.00;5205573;28;20669;-60
2022/03/01 03:08:39;;;;;;;16.10;13.27;;;-2.20;99.90;;;-1.54;74.61;99130.44;5206653;28;20692;-61
2022/03/01 03:11:13;;;;;;;15.87;12.83;;;-2.20;99.90;;;-1.55;74.57;99128.63;5202831;28;20201;-61
2022/03/01 03:13:48;;;;;;;17.17;13.30;;;-2.30;99.90;;;-1.55;74.42;99132.75;5201536;28;20583;-61
2022/03/01 03:16:21;;;;;;;15.83;13.20;;;-2.20;99.90;;;-1.63;74.23;99129.28;5198606;28;20194;-61
2022/03/01 03:18:55;;;;;;;17.50;12.63;;;-2.30;99.90;;;-1.71;75.01;99130.84;5204993;28;20221;-60
2022/03/01 03:21:28;;;;;;;16.37;13.30;;;-2.40;99.90;;;-1.70;73.78;99142.66;5203479;28;20202;-58
2022/03/01 03:24:03;;;;;;;16.70;12.67;;;-2.30;99.90;;;-1.71;74.08;99137.47;5206259;28;20208;-59
2022/03/01 03:26:36;;;;;;;17.30;12.93;;;-2.40;99.90;;;-1.70;74.53;99141.78;5207248;28;20202;-57
2022/03/01 03:29:10;;;;;;;18.40;12.60;;;-2.40;99.90;;;-1.72;73.71;99150.69;5208886;28;20259;-58
2022/03/01 03:31:44;;;;;;;16.47;12.70;;;-2.40;99.90;;;-1.73;74.07;99151.41;5207527;28;20205;-58
2022/03/01 03:34:17;;;;;;;18.20;13.30;;;-2.40;99.90;;;-1.74;74.81;99154.66;5200683;28;20337;-61
2022/03/01 03:36:51;;;;;;;17.80;13.37;;;-2.40;99.90;;;-1.79;74.57;99155.66;5203456;28;20204;-60
2022/03/01 03:39:25;;;;;;;15.77;13.03;;;-2.40;99.90;;;-1.73;73.44;99149.81;5203245;28;20202;-59
2022/03/01 03:41:59;;;;;;;15.20;12.63;;;-2.40;99.90;;;-1.74;74.44;99152.13;5203953;28;20204;-61
2022/03/01 03:44:32;;;;;;;18.80;13.30;;;-2.40;99.90;;;-1.68;74.68;99156.31;5204532;28;20185;-60
2022/03/01 03:47:05;;;;;;;16.07;12.83;;;-2.40;99.90;;;-1.72;74.28;99158.22;5203959;28;20579;-58
2022/03/01 03:49:38;;;;;;;17.83;13.10;;;-2.40;99.90;;;-1.88;75.13;99151.31;5201623;28;20202;-59
2022/03/01 03:52:11;;;;;;;17.07;13.87;;;-2.40;99.90;;;-1.86;74.97;99147.38;5206754;28;20202;-58
2022/03/01 03:54:46;;;;;;;18.67;14.47;;;-2.50;99.90;;;-1.95;74.73;99146.22;5202822;28;20217;-60
2022/03/01 03:57:19;;;;;;;17.47;13.30;;;-2.50;99.90;;;-1.94;72.76;99148.03;5202166;28;20221;-60
2022/03/01 03:59:52;;;;;;;16.73;13.73;;;-2.60;99.90;;;-1.97;73.84;99139.25;5204486;28;20206;-61
2022/03/01 04:02:25;;;;;;;15.60;12.67;;;-2.70;99.90;;;-2.00;72.34;99143.84;5203492;28;20576;-58
2022/03/01 04:04:58;;;;;;;17.67;13.60;;;-2.70;99.90;;;-1.98;73.10;99142.44;5214543;28;20196;-60
2022/03/01 04:07:32;;;;;;;17.20;14.00;;;-2.60;99.90;;;-1.97;74.14;99150.16;5206139;28;20696;-60
2022/03/01 04:10:08;;;;;;;16.50;13.33;;;-2.60;99.90;;;-1.91;72.70;99140.91;5215045;28;20190;-60
2022/03/01 04:12:41;;;;;;;15.20;12.87;;;-2.60;99.90;;;-1.81;73.81;99142.94;5207167;28;20185;-60
2022/03/01 04:15:15;;;;;;;17.13;13.30;;;-2.60;99.90;;;-1.79;74.84;99141.53;5193880;28;20224;-60
2022/03/01 04:17:48;;;;;;;18.07;13.33;;;-2.70;99.90;;;-1.86;73.76;99138.94;5210970;28;20577;-59
2022/03/01 04:20:22;;;;;;;16.97;13.13;;;-2.70;99.90;;;-1.95;75.22;99136.19;5206978;28;20193;-60
2022/03/01 04:22:55;;;;;;;15.97;13.10;;;-2.70;99.90;;;-1.98;75.21;99138.31;5206669;28;20621;-58
2022/03/01 04:25:29;;;;;;;14.43;12.70;;;-2.80;99.90;;;-2.01;74.73;99122.91;5205474;28;20201;-60
2022/03/01 04:28:02;;;;;;;16.33;13.13;;;-2.80;99.90;;;-2.07;76.17;99128.03;5210330;28;20711;-59
2022/03/01 04:30:36;;;;;;;16.13;12.77;;;-2.80;99.90;;;-2.05;75.63;99125.75;5210297;28;20212;-58
2022/03/01 04:33:10;;;;;;;15.10;13.47;;;-2.80;99.90;;;-2.28;74.50;99126.25;5211040;28;20205;-60
2022/03/01 04:35:44;;;;;;;19.00;13.47;;;-3.00;99.90;;;-2.29;75.37;99121.97;5206865;28;20582;-61
2022/03/01 04:38:17;;;;;;;20.70;13.20;;;-3.00;99.90;;;-2.45;74.85;99118.22;5202369;28;20244;-61
2022/03/01 04:40:52;;;;;;;16.40;13.27;;;-3.20;99.90;;;-2.51;75.38;99113.31;5205594;28;20677;-60
2022/03/01 04:43:26;;;;;;;17.43;13.83;;;-3.20;99.90;;;-2.19;75.76;99106.47;5203766;28;20657;-60
2022/03/01 04:45:59;;;;;;;17.63;13.73;;;-3.20;99.90;;;-1.91;74.16;99109.94;5204269;28;20199;-60
2022/03/01 04:48:32;;;;;;;17.90;14.80;;;-3.00;99.90;;;-1.81;73.98;99113.75;5204856;28;20217;-60
2022/03/01 04:51:06;;;;;;;18.30;13.83;;;-2.80;99.90;;;-1.86;73.27;99114.81;5203243;28;20576;-61
2022/03/01 04:53:39;;;;;;;18.93;13.80;;;-2.80;99.90;;;-1.87;73.96;99113.00;5204570;28;20202;-60
2022/03/01 04:56:13;;;;;;;19.07;13.70;;;-2.80;99.90;;;-1.93;73.53;99111.34;5204519;28;20222;-60
2022/03/01 04:58:47;;;;;;;17.83;13.60;;;-2.80;99.90;;;-1.98;74.50;99108.25;5201188;28;20217;-61
2022/03/01 05:01:20;;;;;;;16.87;12.60;;;-2.80;99.90;;;-2.01;73.66;99110.38;5205631;28;20552;-60
2022/03/01 05:03:53;;;;;;;17.87;13.83;;;-2.80;99.90;;;-2.18;72.98;99112.38;5204830;28;20202;-60
2022/03/01 05:06:26;;;;;;;18.63;14.20;;;-2.90;99.90;;;-2.20;74.00;99114.72;5206209;28;20202;-61
2022/03/01 05:08:59;;;;;;;17.87;13.93;;;-2.90;99.90;;;-2.30;75.37;99117.63;5204073;28;20846;-60
2022/03/01 05:11:35;;;;;;;16.37;12.70;;;-2.90;99.90;;;-2.35;74.65;99121.16;5204098;28;20578;-59
2022/03/01 05:14:08;;;;;;;19.43;14.77;;;-3.10;99.90;;;-2.43;74.26;99118.38;5203104;28;20650;-59
2022/03/01 05:16:41;;;;;;;19.93;14.67;;;-3.10;99.90;;;-2.53;74.70;99117.22;5204349;28;20224;-61
2022/03/01 05:19:16;;;;;;;18.63;14.70;;;-3.20;99.90;;;-2.44;74.69;99126.63;5202156;28;20221;-59
2022/03/01 05:21:49;;;;;;;17.20;14.10;;;-3.20;99.90;;;-2.37;74.93;99117.59;5203388;28;20205;-60
2022/03/01 05:24:22;;;;;;;18.50;14.33;;;-3.20;99.90;;;-2.40;76.37;99119.69;5204336;28;20205;-59
2022/03/01 05:26:56;;;;;;;19.30;14.30;;;-3.10;99.90;;;-2.43;76.06;99123.41;5203325;28;20190;-60
2022/03/01 05:29:29;;;;;;;16.70;14.17;;;-3.20;99.90;;;-2.45;75.84;99120.72;5204449;28;20201;-59
2022/03/01 05:32:03;;;;;;;17.37;13.00;;;-3.30;99.90;;;-2.52;75.41;99114.03;5203636;28;20792;-61
2022/03/01 05:34:36;;;;;;;15.70;12.50;;;-3.30;99.90;;;-2.54;74.46;99109.53;5207729;28;20505;-61
2022/03/01 05:37:09;;;;;;;17.97;13.77;;;-3.40;99.90;;;-2.59;75.25;99110.56;5212858;28;20224;-59
2022/03/01 05:39:42;;;;;;;19.80;15.43;;;-3.40;99.90;;;-2.68;75.96;99104.38;5205820;28;20204;-57
2022/03/01 05:42:18;;;;;;;21.63;16.37;;;-3.40;99.90;;;-2.72;75.86;99108.06;5207185;28;20201;-58
2022/03/01 05:44:51;;;;;;;20.37;15.90;;;-3.40;99.90;;;-2.75;76.12;99103.63;5207142;28;20215;-59
2022/03/01 05:47:24;;;;;;;16.80;13.97;;;-3.50;99.90;;;-2.74;74.80;99100.41;5194960;28;20218;-60
2022/03/01 05:49:57;;;;;;;19.13;14.03;;;-3.50;99.90;;;-2.72;74.84;99108.06;5206788;28;20683;-59
2022/03/01 05:52:31;;;;;;;20.43;15.13;;;-3.40;99.90;;;-2.62;75.17;99112.66;5206913;28;20194;-59
2022/03/01 05:55:08;;;;;;;21.10;16.35;;;-3.40;99.90;;;-2.55;74.74;99111.16;5194161;28;20199;-59
2022/03/01 05:57:43;;;;;;;21.77;16.27;;;-3.40;99.90;;;-2.60;74.99;99113.78;5207011;28;20472;-56
2022/03/01 06:00:20;;;;;;;19.03;15.37;;;-3.40;99.90;;;-2.79;75.50;99118.91;5206539;28;20202;-58
2022/03/01 06:02:53;;;;;;;18.57;15.10;;;-3.50;99.90;;;-2.83;74.83;99118.31;5207413;28;20193;-59
2022/03/01 06:05:32;;;;;;;31.47;26.87;;;-3.60;99.90;;;-2.86;76.05;99123.84;5206354;28;20182;-60
2022/03/01 06:08:05;;;;;;;18.37;16.47;;;-3.50;99.90;;;-2.83;76.17;99124.25;5206141;28;20855;-60
2022/03/01 06:10:39;;;;;;;19.17;15.30;;;-3.50;99.90;;;-2.89;76.37;99123.47;5205671;28;20209;-60
2022/03/01 06:13:13;;;;;;;19.60;14.73;;;-3.60;99.90;;;-2.89;76.71;99130.03;5204023;28;20204;-59
2022/03/01 06:15:48;;;;;;;19.53;14.33;;;-3.50;99.90;;;-2.98;77.42;99132.25;5206921;28;20593;-60
2022/03/01 06:18:21;;;;;;;16.33;14.27;;;-3.60;99.90;;;-3.02;76.35;99140.06;5206614;28;20236;-59
2022/03/01 06:20:55;;;;;;;18.90;14.50;;;-3.60;99.90;;;-3.00;76.10;99138.69;5206515;28;20207;-60
2022/03/01 06:23:28;;;;;;;16.53;14.50;;;-3.60;99.90;;;-2.97;76.02;99139.97;5205006;28;20206;-59
2022/03/01 06:26:01;;;;;;;19.87;14.43;;;-3.60;99.90;;;-2.87;75.73;99148.66;5206430;28;20194;-61
2022/03/01 06:28:36;;;;;;;16.70;13.37;;;-3.50;99.90;;;-2.85;74.65;99148.16;5206597;28;20226;-61
2022/03/01 06:31:09;;;;;;;16.10;14.13;;;-3.40;99.90;;;-2.74;74.98;99155.44;5206225;28;20208;-60
2022/03/01 06:33:43;;;;;;;17.63;13.87;;;-3.30;99.90;;;-2.58;74.89;99153.28;5206130;28;20200;-59
2022/03/01 06:36:16;;;;;;;17.87;14.03;;;-3.10;99.90;;;-2.38;75.26;99153.31;5206689;28;20719;-59
2022/03/01 06:38:49;;;;;;;21.60;15.67;;;-3.10;99.90;;;-2.25;74.94;99154.91;5206481;28;20230;-57
2022/03/01 06:41:22;;;;;;;19.97;14.97;;;-3.00;99.90;;;-2.27;74.61;99158.09;5205613;28;20658;-61
2022/03/01 06:43:56;;;;;;;22.80;15.93;;;-3.00;99.90;;;-2.04;74.22;99152.59;5205962;28;20204;-58
2022/03/01 06:46:30;;;;;;;19.83;14.80;;;-2.80;99.90;;;-1.64;73.98;99152.56;5205450;28;20194;-61
2022/03/01 06:49:03;;;;;;;24.13;21.73;;;-2.60;99.90;;;-1.32;72.82;99158.16;5205778;28;20309;-59
2022/03/01 06:51:36;;;;;;;17.87;15.37;;;-2.40;99.90;;;-1.04;70.86;99154.91;5205212;28;20202;-61
2022/03/01 06:54:09;;;;;;;18.73;14.90;;;-2.10;99.90;;;-0.92;71.11;99156.41;5205782;28;20205;-60
2022/03/01 06:56:43;;;;;;;16.47;14.13;;;-1.80;99.90;;;-0.78;70.52;99153.06;5205738;28;20226;-61
2022/03/01 06:59:18;;;;;;;16.17;13.87;;;-1.60;99.90;;;-0.48;71.10;99163.41;5206188;28;20225;-59
2022/03/01 07:01:51;;;;;;;18.80;15.73;;;-1.30;99.90;;;-0.28;69.37;99160.78;5205464;28;20259;-61
2022/03/01 07:04:30;;;;;;;22.00;15.93;;;-1.20;99.90;;;-0.12;69.13;99164.38;5205891;28;20248;-60
2022/03/01 07:07:05;;;;;;;20.40;15.27;;;-0.90;99.90;;;0.09;68.23;99171.06;5205299;28;20212;-61
2022/03/01 07:09:38;;;;;;;18.20;14.53;;;-0.70;99.90;;;0.16;66.51;99167.66;5206086;28;20646;-61
2022/03/01 07:12:11;;;;;;;18.50;14.97;;;-0.50;99.90;;;0.42;65.92;99173.22;5204997;28;20713;-62
2022/03/01 07:14:46;;;;;;;18.93;14.90;;;-0.40;99.90;;;0.75;65.38;99165.31;5205754;28;20259;-61
2022/03/01 07:17:19;;;;;;;18.47;14.27;;;-0.10;99.90;;;0.84;64.03;99172.28;5204990;28;20735;-60
2022/03/01 07:19:52;;;;;;;18.07;14.57;;;0.20;99.90;;;1.01;62.10;99180.91;5198401;28;20213;-61
2022/03/01 07:22:26;;;;;;;15.90;14.33;;;0.20;99.90;;;1.11;60.83;99173.66;5205000;28;20288;-61
2022/03/01 07:25:03;;;;;;;17.80;15.07;;;0.40;99.60;;;1.17;61.09;99163.41;5205411;28;20186;-61
2022/03/01 07:27:36;;;;;;;18.10;15.17;;;0.50;99.90;;;1.41;61.14;99162.78;5209843;28;20702;-60
2022/03/01 07:30:12;;;;;;;19.10;15.67;;;0.70;99.90;;;1.58;61.29;99166.47;5205874;28;20197;-61
2022/03/01 07:32:45;;;;;;;16.33;14.63;;;0.90;99.80;;;1.78;61.76;99171.22;5204548;28;20205;-62
2022/03/01 07:35:19;;;;;;;16.57;14.87;;;1.20;99.90;;;2.04;59.56;99165.66;5202427;28;20652;-62
2022/03/01 07:37:54;;;;;;;17.07;14.50;;;1.30;99.30;;;2.03;58.80;99168.91;5204624;28;20230;-62
2022/03/01 07:40:28;;;;;;;16.03;13.70;;;1.40;98.50;;;1.96;58.09;99166.44;5204229;28;20200;-61
2022/03/01 07:43:01;;;;;;;16.67;14.07;;;1.40;97.70;;;2.22;56.08;99176.88;5201800;28;20246;-59
2022/03/01 07:45:36;;;;;;;15.73;13.23;;;1.50;97.00;;;2.31;56.02;99177.00;5204999;28;20564;-62
2022/03/01 07:48:10;;;;;;;16.13;13.10;;;1.50;96.50;;;2.10;56.42;99181.47;5204737;28;20215;-58
2022/03/01 07:50:43;;;;;;;18.00;13.83;;;1.40;96.80;;;2.52;55.66;99179.38;5204324;28;20203;-60
2022/03/01 07:53:17;;;;;;;16.70;13.77;;;1.60;96.60;;;2.61;56.89;99185.41;5205019;28;20300;-61
2022/03/01 07:55:51;;;;;;;18.40;15.37;;;1.90;97.70;;;2.92;55.93;99178.66;5204762;28;20212;-61
2022/03/01 07:58:24;;;;;;;18.00;14.97;;;2.30;96.10;;;3.03;53.64;99165.50;5204876;28;20222;-60
2022/03/01 08:00:59;;;;;;;19.70;15.43;;;2.30;95.20;;;3.14;54.17;99170.09;5204420;28;20212;-59
2022/03/01 08:03:32;;;;;;;18.67;14.60;;;2.40;96.00;;;3.21;54.45;99173.28;5208825;28;20205;-61
2022/03/01 08:06:06;;;;;;;17.70;13.57;;;2.40;95.80;;;3.26;54.06;99169.59;5208962;28;20208;-59
2022/03/01 08:08:39;;;;;;;16.03;13.63;;;2.50;95.50;;;3.43;54.26;99167.22;5208945;28;20236;-58
2022/03/01 08:11:13;;;;;;;18.10;14.43;;;2.70;95.70;;;3.76;52.11;99164.81;5208415;28;20218;-61
2022/03/01 08:13:47;;;;;;;18.50;15.67;;;3.10;94.10;;;3.57;51.57;99166.16;5208953;28;20224;-59
2022/03/01 08:16:22;;;;;;;19.90;16.67;;;3.00;93.60;;;3.61;51.51;99154.00;5208868;28;20220;-61
2022/03/01 08:18:55;;;;;;;16.77;14.53;;;3.00;93.40;;;4.03;51.21;99161.75;5208953;28;20688;-60
2022/03/01 08:21:28;;;;;;;17.93;15.53;;;3.30;93.40;;;3.94;50.25;99154.81;5207981;28;20209;-60
2022/03/01 08:24:02;;;;;;;17.83;13.13;;;3.20;92.40;;;4.24;49.55;99167.22;5209294;28;20204;-59
2022/03/01 08:26:35;;;;;;;15.07;11.87;;;3.50;92.30;;;4.40;48.12;99160.41;5207787;28;20200;-59
2022/03/01 08:29:12;;;;;;;13.93;11.73;;;3.80;91.10;;;4.48;47.17;99153.63;5205269;28;20218;-59
2022/03/01 08:31:47;;;;;;;14.53;12.33;;;4.00;90.10;;;4.51;47.76;99152.28;5208564;28;20295;-61
2022/03/01 08:34:20;;;;;;;14.83;12.30;;;3.90;90.90;;;4.67;46.59;99157.28;5208371;28;20574;-60
2022/03/01 08:36:53;;;;;;;13.43;12.03;;;4.20;89.80;;;4.87;46.21;99150.78;5212205;28;20270;-60
2022/03/01 08:39:26;;;;;;;13.67;11.27;;;4.40;88.90;;;5.06;44.92;99150.94;5212627;28;20301;-61
2022/03/01 08:42:00;;;;;;;12.17;10.90;;;4.60;87.50;;;4.94;45.20;99153.16;5207532;28;20250;-59
2022/03/01 08:44:33;;;;;;;12.17;10.90;;;4.40;87.20;;;5.08;44.14;99152.00;5208585;28;20621;-61
2022/03/01 08:47:17;;;;;;;;;;;;;;;;;;;;;
2022/03/01 08:49:51;;;;;;;12.13;10.90;;;4.70;84.70;;;5.40;42.34;99161.13;5202960;28;20254;-61
2022/03/01 08:52:24;;;;;;;13.10;11.30;;;5.00;82.90;;;5.43;42.57;99156.34;5208568;28;20198;-61
2022/03/01 08:54:57;;;;;;;13.30;11.80;;;5.00;83.10;;;5.45;43.18;99150.56;5208709;28;20186;-60
2022/03/01 08:57:30;;;;;;;13.00;11.60;;;5.00;83.70;;;5.68;41.70;99151.16;5208436;28;20245;-60
2022/03/01 09:00:07;;;;;;;12.57;11.27;;;5.10;82.40;;;5.74;41.82;99146.66;5207706;28;20209;-62
2022/03/01 09:02:42;;;;;;;13.87;10.67;;;5.20;82.60;;;5.76;41.69;99140.09;5208400;28;20719;-63
2022/03/01 09:05:15;;;;;;;13.27;10.97;;;5.20;82.00;;;5.81;42.16;99131.28;5205407;28;20222;-61
2022/03/01 09:07:48;;;;;;;13.10;11.30;;;5.20;82.10;;;5.94;40.98;99128.31;5207601;28;20219;-62
2022/03/01 09:10:22;;;;;;;14.10;11.47;;;5.30;81.60;;;5.68;41.99;99132.50;5206853;28;20204;-61
2022/03/01 09:12:57;;;;;;;12.57;10.53;;;5.10;82.70;;;5.49;40.80;99124.75;5207712;28;20211;-62
2022/03/01 09:15:33;;;;;;;12.00;10.80;;;4.80;79.90;;;5.70;41.35;99119.22;5207841;28;20325;-62
2022/03/01 09:18:08;;;;;;;12.80;11.50;;;5.00;81.70;;;5.77;41.23;99118.16;5207076;28;20227;-62
2022/03/01 09:20:41;;;;;;;12.00;10.77;;;5.30;81.40;;;5.57;41.41;99111.16;5207044;28;20201;-62
2022/03/01 09:23:15;;;;;;;11.83;10.57;;;4.90;81.40;;;5.82;40.83;99110.25;5207276;28;20206;-62
2022/03/01 09:25:48;;;;;;;14.13;10.73;;;5.10;81.00;;;5.92;41.06;99091.69;5207582;28;20300;-62
2022/03/01 09:28:21;;;;;;;12.07;10.80;;;5.20;80.50;;;6.01;40.85;99091.72;5207274;28;20220;-62
2022/03/01 09:30:54;;;;;;;11.27;9.80;;;5.30;80.80;;;6.08;40.22;99081.41;5206855;28;20657;-62
2022/03/01 09:33:29;;;;;;;12.57;11.27;;;5.50;80.00;;;6.20;39.62;99084.19;5201395;28;20202;-60
2022/03/01 09:36:02;;;;;;;12.23;10.93;;;5.70;79.00;;;6.17;39.13;99084.78;5197339;28;20579;-62
2022/03/01 09:38:37;;;;;;;12.67;10.77;;;5.60;78.00;;;5.94;40.13;99086.81;5206438;28;20230;-60
2022/03/01 09:41:13;;;;;;;12.07;10.53;;;5.50;79.30;;;5.81;40.77;99072.94;5206695;28;20202;-62
2022/03/01 09:43:46;;;;;;;12.00;10.80;;;5.30;79.60;;;6.04;40.25;99074.25;5207546;28;20186;-60
2022/03/01 09:46:21;;;;;;;11.80;10.53;;;5.40;79.10;;;5.98;40.14;99071.13;5207403;28;20208;-62
2022/03/01 09:48:55;;;;;;;12.20;10.93;;;5.40;79.80;;;5.99;39.91;99075.47;5205546;28;20719;-62
2022/03/01 09:51:30;;;;;;;12.47;11.00;;;5.40;79.10;;;5.95;40.20;99070.84;5206787;28;20214;-62
2022/03/01 09:54:04;;;;;;;11.73;10.43;;;5.40;78.50;;;6.13;40.30;99057.34;5206906;28;20212;-62
2022/03/01 09:56:37;;;;;;;11.73;10.37;;;5.50;80.00;;;6.38;38.47;99049.47;5205784;28;20200;-60
2022/03/01 09:59:10;;;;;;;12.87;10.63;;;5.90;77.00;;;6.32;38.82;99049.78;5207727;28;20225;-61
2022/03/01 10:01:49;;;;;;;11.13;9.93;;;5.90;77.40;;;6.43;39.02;99054.22;5204245;28;20233;-63
2022/03/01 10:04:25;;;;;;;12.70;11.00;;;6.00;76.90;;;6.53;39.05;99050.88;5212613;28;20205;-63
2022/03/01 10:06:58;;;;;;;12.07;10.33;;;6.10;77.10;;;6.51;39.28;99047.31;5206827;28;20197;-62
2022/03/01 10:09:31;;;;;;;11.53;10.20;;;5.90;77.30;;;6.49;38.86;99039.53;5205430;28;20194;-61
2022/03/01 10:12:06;;;;;;;11.00;10.00;;;6.00;76.90;;;6.63;38.19;99043.34;5202926;28;20657;-62
2022/03/01 10:14:40;;;;;;;10.80;9.63;;;6.20;76.40;;;6.81;38.21;99041.59;5206280;28;20214;-61
2022/03/01 10:17:16;;;;;;;11.13;10.03;;;6.30;75.90;;;6.69;37.10;99028.66;5206699;28;20225;-62
2022/03/01 10:20:02;;;;;;;11.20;10.10;;;6.20;75.10;;;6.85;37.46;99036.03;5206507;28;20579;-62
2022/03/01 10:22:39;;;;;;;11.03;9.87;;;6.30;75.50;;;6.77;38.06;99032.78;5206284;28;20196;-61
2022/03/01 10:25:15;;;;;;;10.80;9.43;;;6.30;75.50;;;6.92;37.75;99033.28;5205806;28;20216;-62
2022/03/01 10:27:51;;;;;;;11.40;10.20;;;6.50;74.60;;;6.72;36.49;99031.50;5206586;28;20221;-63
2022/03/01 10:30:26;;;;;;;10.50;9.50;;;6.20;73.70;;;6.76;37.54;99025.94;5206521;28;20284;-62
2022/03/01 10:33:09;;;;;;;10.20;9.30;;;6.30;75.30;;;6.74;37.07;99024.88;5204391;28;20193;-61
2022/03/01 10:35:57;;;;;;;11.97;10.67;;;6.40;74.10;;;6.87;37.33;99014.19;5206564;28;20292;-61
2022/03/01 10:38:30;;;;;;;10.63;9.53;;;6.40;73.80;;;6.65;37.45;99008.81;5206632;28;20246;-63
2022/03/01 10:41:03;;;;;;;11.63;10.43;;;6.40;73.50;;;6.83;36.79;99006.16;5206259;28;20585;-61